Time;durP1;ratioP1;P1;durP2;ratioP2;P2;SDS_P1;SDS_P2;PMS_P1;PMS_P2;Temp;Humidity;BMP_temperature;BMP_pressure;BME280_temperature;BME280_humidity;BME280_pressure;Samples;Min_cycle;Max_cycle;Signal;HPM_P1;HPM_P2
2022/11/21 00:00:01;;;;;;;93.50;41.20;;;;;;;-2.99;71.89;99421.15;126918;1297;98731;-76
2022/11/21 00:03:04;;;;;;;91.10;40.10;;;;;;;-3.01;71.56;99417.23;126868;1288;98128;-73
2022/11/21 00:06:06;;;;;;;95.40;38.90;;;;;;;-3.01;71.89;99413.55;126717;1277;98760;-74
2022/11/21 00:09:09;;;;;;;101.90;41.00;;;;;;;-3.02;71.39;99413.27;126760;1287;99081;-73
2022/11/21 00:12:12;;;;;;;105.80;42.70;;;;;;;-3.07;70.97;99410.95;126945;1289;98384;-74
2022/11/21 00:15:14;;;;;;;107.50;44.40;;;;;;;-3.15;71.54;99409.16;126805;1278;98290;-73
2022/11/21 00:18:17;;;;;;;98.30;41.40;;;;;;;-3.21;71.11;99411.38;126811;1289;97974;-73
2022/11/21 00:21:20;;;;;;;105.40;43.10;;;;;;;-3.29;71.25;99406.61;126798;1285;99150;-74
2022/11/21 00:24:22;;;;;;;106.70;43.40;;;;;;;-3.42;70.77;99408.55;126683;1288;98018;-73
2022/11/21 00:27:25;;;;;;;96.10;41.50;;;;;;;-3.52;71.01;99413.31;126663;1286;99081;-74
2022/11/21 00:30:28;;;;;;;103.60;40.90;;;;;;;-3.59;71.10;99417.66;126764;1288;97978;-72
2022/11/21 00:33:31;;;;;;;93.80;39.60;;;;;;;-3.69;70.79;99413.70;126733;1278;99176;-73
2022/11/21 00:36:34;;;;;;;102.60;41.20;;;;;;;-3.79;70.91;99411.95;126634;1274;98081;-73
2022/11/21 00:39:36;;;;;;;95.30;39.00;;;;;;;-3.84;71.19;99412.64;126725;1281;98630;-73
2022/11/21 00:42:39;;;;;;;97.10;37.80;;;;;;;-3.90;70.87;99413.10;126726;1280;98051;-74
2022/11/21 00:45:41;;;;;;;95.70;37.80;;;;;;;-3.99;70.83;99412.36;126762;1279;99263;-73
2022/11/21 00:48:44;;;;;;;92.10;38.40;;;;;;;-4.05;70.86;99417.19;126723;1277;98070;-75
2022/11/21 00:51:47;;;;;;;93.60;37.70;;;;;;;-4.12;70.80;99418.42;126677;1294;99193;-73
2022/11/21 00:54:49;;;;;;;104.20;40.30;;;;;;;-4.20;71.30;99413.14;126800;1281;98769;-73
2022/11/21 00:57:52;;;;;;;98.70;38.40;;;;;;;-4.27;71.31;99407.27;126749;1277;110877;-73
2022/11/21 01:01:04;;;;;;;88.10;37.90;;;;;;;-4.32;71.38;99402.27;126627;1280;99243;-72
2022/11/21 01:04:06;;;;;;;90.70;38.60;;;;;;;-4.35;71.37;99396.00;126679;1288;111765;-73
2022/11/21 01:07:09;;;;;;;97.80;38.90;;;;;;;-4.36;71.64;99397.27;126835;1288;99504;-73
2022/11/21 01:10:12;;;;;;;82.70;35.70;;;;;;;-4.37;71.55;99398.20;126637;1276;99589;-74
2022/11/21 01:13:14;;;;;;;88.00;36.20;;;;;;;-4.38;71.41;99394.44;126807;1278;98002;-74
2022/11/21 01:16:19;;;;;;;86.60;35.50;;;;;;;-4.36;71.87;99395.86;126650;1281;98418;-74
2022/11/21 01:19:21;;;;;;;83.10;35.50;;;;;;;-4.34;71.77;99392.48;126774;1298;111218;-73
2022/11/21 01:22:24;;;;;;;77.70;32.10;;;;;;;-4.24;72.25;99380.52;126581;1279;98771;-73
2022/11/21 01:25:27;;;;;;;78.50;32.30;;;;;;;-4.13;71.89;99373.15;126760;1279;98014;-74
2022/11/21 01:28:30;;;;;;;86.90;35.00;;;;;;;-4.15;71.63;99368.55;126702;1279;98637;-74
2022/11/21 01:31:33;;;;;;;85.40;36.80;;;;;;;-4.18;71.66;99365.27;126689;1288;99169;-73
2022/11/21 01:34:35;;;;;;;86.50;35.40;;;;;;;-4.19;71.63;99370.52;126798;1291;98413;-72
2022/11/21 01:37:38;;;;;;;91.60;37.40;;;;;;;-4.18;71.87;99367.52;126797;1298;99145;-74
2022/11/21 01:40:40;;;;;;;92.70;36.90;;;;;;;-4.19;71.81;99370.02;126689;1294;98088;-73
2022/11/21 01:43:43;;;;;;;92.30;35.80;;;;;;;-4.23;71.78;99367.77;126800;1279;98626;-76
2022/11/21 01:46:47;;;;;;;89.50;35.40;;;;;;;-4.27;71.73;99372.69;126768;1286;107545;-75
2022/11/21 01:49:50;;;;;;;82.70;34.90;;;;;;;-4.33;71.55;99371.08;126842;1288;107442;-73
2022/11/21 01:52:53;;;;;;;91.30;35.60;;;;;;;-4.39;71.52;99370.34;126685;1278;107538;-75
2022/11/21 01:55:56;;;;;;;94.30;35.10;;;;;;;-4.46;71.32;99375.57;126877;1285;99170;-73
2022/11/21 01:59:02;;;;;;;86.50;35.20;;;;;;;-4.52;71.53;99377.81;126865;1285;99160;-72
2022/11/21 02:02:07;;;;;;;81.70;33.90;;;;;;;-4.55;71.58;99381.59;126844;1285;107525;-74
2022/11/21 02:05:15;;;;;;;81.90;47.10;;;;;;;-4.56;71.32;99385.11;126928;1278;107693;-73
2022/11/21 02:08:20;;;;;;;81.90;34.20;;;;;;;-4.61;71.26;99382.43;126890;1288;107595;-74
2022/11/21 02:11:31;;;;;;;82.60;33.50;;;;;;;-4.64;71.30;99384.67;126773;1300;107710;-73
2022/11/21 02:14:36;;;;;;;83.20;34.40;;;;;;;-4.68;71.68;99387.32;126709;1279;107769;-74
2022/11/21 02:17:39;;;;;;;81.60;34.40;;;;;;;-4.70;71.66;99383.77;126747;1279;108795;-74
2022/11/21 02:20:46;;;;;;;86.70;34.10;;;;;;;-4.72;71.78;99386.29;126771;1271;97973;-73
2022/11/21 02:23:57;;;;;;;88.30;34.10;;;;;;;-4.75;71.77;99384.86;126757;1277;107576;-73
2022/11/21 02:26:59;;;;;;;80.80;32.90;;;;;;;-4.78;71.63;99382.56;126714;1288;107499;-73
2022/11/21 02:30:04;;;;;;;75.00;32.30;;;;;;;-4.79;71.85;99381.09;126657;1287;98014;-72
2022/11/21 02:33:07;;;;;;;75.50;32.00;;;;;;;-4.78;71.96;99377.21;126697;1293;108120;-74
2022/11/21 02:36:37;;;;;;;77.50;32.00;;;;;;;-4.76;71.92;99375.20;126738;1288;107529;-74
2022/11/21 02:39:41;;;;;;;75.80;30.90;;;;;;;-4.71;71.76;99380.36;126733;1299;107292;-73
2022/11/21 02:42:50;;;;;;;67.90;27.30;;;;;;;-4.66;71.88;99384.27;126801;1295;107539;-73
2022/11/21 02:45:53;;;;;;;76.10;29.50;;;;;;;-4.59;71.64;99389.80;126913;1279;106520;-73
2022/11/21 02:48:57;;;;;;;81.70;31.60;;;;;;;-4.55;71.65;99390.78;126773;1295;98205;-73
2022/11/21 02:52:00;;;;;;;83.70;34.50;;;;;;;-4.53;71.42;99387.05;126646;1295;107521;-74
2022/11/21 02:55:03;;;;;;;76.60;31.70;;;;;;;-4.58;71.44;99386.77;126832;1287;98008;-74
2022/11/21 02:58:06;;;;;;;76.90;31.40;;;;;;;-4.69;70.85;99397.05;126845;1289;98447;-72
2022/11/21 03:01:08;;;;;;;79.10;32.40;;;;;;;-4.77;71.09;99400.77;126694;1285;98066;-75
2022/11/21 03:04:11;;;;;;;79.80;32.70;;;;;;;-4.79;71.06;99396.52;126623;1278;98091;-76
2022/11/21 03:07:14;;;;;;;76.60;31.00;;;;;;;-4.82;70.96;99393.58;126663;1289;98069;-74
2022/11/21 03:10:17;;;;;;;74.00;31.40;;;;;;;-4.86;71.01;99397.39;126683;1279;99170;-74
2022/11/21 03:13:20;;;;;;;78.50;31.00;;;;;;;-4.93;70.93;99406.59;126763;1300;99151;-75
2022/11/21 03:16:23;;;;;;;76.80;30.70;;;;;;;-4.99;70.88;99409.13;126651;1294;99118;-75
2022/11/21 03:19:25;;;;;;;81.00;31.20;;;;;;;-5.03;70.97;99414.03;126720;1283;98418;-74
2022/11/21 03:22:28;;;;;;;73.30;30.30;;;;;;;-5.08;71.08;99411.84;126826;1280;97985;-76
2022/11/21 03:25:31;;;;;;;74.80;30.10;;;;;;;-5.09;70.92;99412.25;126782;1288;97969;-74
2022/11/21 03:28:33;;;;;;;76.60;31.80;;;;;;;-5.12;71.06;99414.98;126672;1300;98637;-76
2022/11/21 03:31:36;;;;;;;68.40;28.10;;;;;;;-5.16;70.97;99405.61;126712;1287;99205;-75
2022/11/21 03:34:39;;;;;;;74.90;30.20;;;;;;;-5.17;71.12;99401.33;126841;1288;97987;-76
2022/11/21 03:37:42;;;;;;;76.30;30.90;;;;;;;-5.18;71.21;99397.08;126803;1288;98048;-73
2022/11/21 03:40:44;;;;;;;75.60;30.60;;;;;;;-5.22;71.09;99390.31;126828;1277;99243;-75
2022/11/21 03:43:47;;;;;;;75.60;30.70;;;;;;;-5.26;70.99;99383.07;126724;1292;99189;-76
2022/11/21 03:46:50;;;;;;;73.70;30.60;;;;;;;-5.29;70.90;99385.80;126773;1288;99148;-72
2022/11/21 03:49:53;;;;;;;74.20;29.70;;;;;;;-5.33;71.11;99383.23;126806;1278;97996;-73
2022/11/21 03:52:56;;;;;;;72.20;30.60;;;;;;;-5.38;70.90;99378.25;126936;1285;98571;-73
2022/11/21 03:55:58;;;;;;;68.70;30.00;;;;;;;-5.44;70.81;99370.44;126808;1279;97982;-73
2022/11/21 03:59:02;;;;;;;73.40;28.80;;;;;;;-5.56;70.49;99369.25;126697;1281;98015;-73
2022/11/21 04:02:04;;;;;;;74.70;28.40;;;;;;;-5.61;70.47;99370.35;126614;1287;99167;-72
2022/11/21 04:05:08;;;;;;;75.60;29.80;;;;;;;-5.64;70.48;99371.55;126968;1300;97991;-72
2022/11/21 04:08:11;;;;;;;72.40;29.00;;;;;;;-5.68;70.47;99371.73;127174;1279;98050;-74
2022/11/21 04:11:13;;;;;;;74.30;28.90;;;;;;;-5.74;70.47;99372.52;127074;1278;98478;-72
2022/11/21 04:14:16;;;;;;;71.10;30.10;;;;;;;-5.76;70.67;99368.48;127002;1278;99132;-74
2022/11/21 04:17:19;;;;;;;68.90;28.20;;;;;;;-5.79;70.20;99370.68;126942;1281;97972;-73
2022/11/21 04:20:21;;;;;;;69.10;28.00;;;;;;;-5.81;70.32;99365.73;126823;1284;97978;-74
2022/11/21 04:23:24;;;;;;;72.40;30.30;;;;;;;-5.80;70.50;99359.84;126918;1277;98760;-74
2022/11/21 04:26:26;;;;;;;64.40;28.10;;;;;;;-5.77;70.51;99359.16;127042;1285;99026;-73
2022/11/21 04:29:29;;;;;;;68.40;29.10;;;;;;;-5.76;70.14;99365.69;126751;1289;111182;-73
2022/11/21 04:32:32;;;;;;;71.10;28.80;;;;;;;-5.80;70.22;99360.86;126774;1292;98590;-72
2022/11/21 04:35:34;;;;;;;69.90;27.70;;;;;;;-5.83;70.06;99361.14;126760;1278;99136;-73
2022/11/21 04:38:37;;;;;;;70.10;28.40;;;;;;;-5.88;70.32;99349.12;126664;1299;98094;-75
2022/11/21 04:41:40;;;;;;;67.80;27.50;;;;;;;-5.89;70.01;99348.83;126783;1289;99229;-73
2022/11/21 04:44:42;;;;;;;71.20;29.20;;;;;;;-5.93;70.21;99342.23;126861;1293;98074;-72
2022/11/21 04:47:46;;;;;;;76.60;28.60;;;;;;;-5.90;70.52;99339.52;126796;1287;98137;-74
2022/11/21 04:50:49;;;;;;;83.00;32.90;;;;;;;-5.88;70.28;99339.25;126705;1285;98470;-73
2022/11/21 04:53:52;;;;;;;81.50;31.50;;;;;;;-5.91;70.02;99338.87;126764;1283;99026;-72
2022/11/21 04:56:54;;;;;;;75.40;30.00;;;;;;;-5.95;69.94;99344.73;126850;1287;97983;-73
2022/11/21 04:59:57;;;;;;;91.30;31.50;;;;;;;-5.98;70.00;99346.63;126636;1287;99923;-72
2022/11/21 05:03:04;;;;;;;83.00;30.90;;;;;;;-6.01;70.33;99350.59;126809;1287;98006;-74
2022/11/21 05:06:07;;;;;;;74.70;28.90;;;;;;;-6.02;69.95;99352.23;126638;1283;107403;-73
2022/11/21 05:09:10;;;;;;;69.10;27.50;;;;;;;-5.99;70.29;99348.96;126628;1294;98433;-73
2022/11/21 05:15:33;;;;;;;61.10;23.90;;;;;;;-5.98;70.11;99344.73;126581;1294;107405;-73
2022/11/21 05:18:36;;;;;;;61.50;24.70;;;;;;;-5.94;70.27;99342.96;126600;1289;97987;-74
2022/11/21 05:21:38;;;;;;;58.90;24.70;;;;;;;-5.85;70.25;99341.37;126622;1290;97986;-72
2022/11/21 05:24:41;;;;;;;73.90;31.40;;;;;;;-5.74;70.27;99339.45;126589;1289;98069;-71
2022/11/21 05:27:44;;;;;;;103.90;46.40;;;;;;;-5.65;70.03;99338.98;126842;1293;98780;-71
2022/11/21 05:30:46;;;;;;;78.20;32.90;;;;;;;-5.59;70.22;99337.66;126620;1277;98071;-72
2022/11/21 05:33:49;;;;;;;74.60;30.10;;;;;;;-5.56;70.36;99326.09;127108;1284;98705;-72
2022/11/21 05:36:55;;;;;;;177.40;71.90;;;;;;;-5.53;70.66;99316.94;126801;1296;98265;-71
2022/11/21 05:39:59;;;;;;;99.40;44.20;;;;;;;-5.47;71.14;99314.43;126842;1293;98776;-72
2022/11/21 05:46:24;;;;;;;98.10;42.00;;;;;;;-5.40;71.30;99316.70;126559;1301;98948;-79
2022/11/21 05:49:27;;;;;;;76.50;31.40;;;;;;;-5.41;71.20;99322.77;126768;1280;98751;-84
2022/11/21 05:52:29;;;;;;;71.90;29.40;;;;;;;-5.42;71.36;99336.85;126977;1277;99141;-82
2022/11/21 05:55:33;;;;;;;68.40;28.90;;;;;;;-5.44;71.33;99340.80;127239;1272;97990;-85
2022/11/21 05:58:36;;;;;;;73.90;30.40;;;;;;;-5.47;71.46;99336.42;126952;1296;97982;-84
2022/11/21 06:05:00;;;;;;;69.20;28.40;;;;;;;-5.49;71.57;99329.73;127143;1293;99135;-84
2022/11/21 06:08:02;;;;;;;65.60;26.90;;;;;;;-5.46;71.88;99329.27;126977;1285;98764;-84
2022/11/21 06:11:06;;;;;;;67.30;27.40;;;;;;;-5.38;71.76;99333.38;126932;1285;98022;-83
2022/11/21 06:14:09;;;;;;;110.10;39.20;;;;;;;-5.33;71.93;99331.89;127171;1287;98010;-83
2022/11/21 06:17:12;;;;;;;102.90;37.30;;;;;;;-5.30;71.88;99334.41;127119;1270;98387;-84
2022/11/21 06:20:15;;;;;;;78.00;31.20;;;;;;;-5.30;71.95;99340.98;126937;1295;99198;-84
2022/11/21 06:23:18;;;;;;;75.00;29.20;;;;;;;-5.29;72.10;99340.56;126770;1294;98121;-84
2022/11/21 06:26:22;;;;;;;87.50;35.00;;;;;;;-5.24;71.97;99335.27;126889;1281;99141;-82
2022/11/21 06:29:25;;;;;;;83.00;33.80;;;;;;;-5.17;72.10;99331.98;127133;1279;98030;-83
2022/11/21 06:32:27;;;;;;;85.70;34.50;;;;;;;-5.06;72.40;99335.60;126985;1295;97998;-83
2022/11/21 06:35:31;;;;;;;109.20;41.70;;;;;;;-4.92;72.31;99337.33;127199;1290;98021;-85
2022/11/21 06:38:33;;;;;;;72.00;30.30;;;;;;;-4.75;72.44;99329.20;127017;1293;99202;-85
2022/11/21 06:41:36;;;;;;;74.00;29.80;;;;;;;-4.57;72.31;99329.30;126900;1287;99160;-87
2022/11/21 06:44:38;;;;;;;99.40;37.80;;;;;;;-4.41;72.49;99327.03;126815;1293;98416;-83
2022/11/21 06:47:41;;;;;;;87.90;35.90;;;;;;;-4.28;72.38;99326.04;127096;1290;98976;-84
2022/11/21 06:50:44;;;;;;;77.40;34.00;;;;;;;-4.17;72.48;99328.91;127031;1285;98034;-84
2022/11/21 06:53:54;;;;;;;74.00;31.20;;;;;;;-4.04;72.49;99322.45;126781;1283;99156;-85
2022/11/21 06:56:58;;;;;;;79.20;32.30;;;;;;;-3.90;72.58;99307.30;127062;1288;98650;-84
2022/11/21 07:00:01;;;;;;;76.10;33.10;;;;;;;-3.77;72.73;99307.64;126778;1288;98017;-86
2022/11/21 07:03:04;;;;;;;73.70;33.50;;;;;;;-3.65;72.82;99307.65;127022;1278;99163;-84
2022/11/21 07:06:06;;;;;;;71.30;32.40;;;;;;;-3.57;72.98;99315.53;126830;1293;98008;-83
2022/11/21 07:09:09;;;;;;;65.60;30.60;;;;;;;-3.50;73.08;99320.04;127076;1296;98144;-86
2022/11/21 07:15:33;;;;;;;64.20;28.90;;;;;;;-3.25;73.48;99321.73;127112;1299;99166;-87
2022/11/21 07:18:36;;;;;;;58.20;26.40;;;;;;;-3.11;73.64;99309.97;127084;1286;98812;-85
2022/11/21 07:21:39;;;;;;;56.10;26.70;;;;;;;-3.00;73.56;99309.98;126938;1279;99130;-84
2022/11/21 07:24:41;;;;;;;55.30;26.80;;;;;;;-2.90;73.81;99308.52;126956;1274;98021;-81
2022/11/21 07:27:44;;;;;;;56.60;26.60;;;;;;;-2.78;73.88;99302.77;126986;1279;98612;-84
2022/11/21 07:30:47;;;;;;;53.00;25.00;;;;;;;-2.63;73.95;99301.17;126997;1286;99137;-85
2022/11/21 07:33:49;;;;;;;50.60;23.80;;;;;;;-2.47;74.21;99301.78;127068;1278;97990;-84
2022/11/21 07:36:53;;;;;;;54.80;25.30;;;;;;;-2.25;74.40;99301.47;126933;1288;97992;-84
2022/11/21 07:39:55;;;;;;;50.60;23.30;;;;;;;-2.04;74.51;99299.98;126902;1293;99141;-87
2022/11/21 07:43:01;;;;;;;52.90;25.00;;;;;;;-1.85;74.29;99291.61;126982;1294;97992;-86
2022/11/21 07:46:04;;;;;;;71.00;31.80;;;;;;;-1.67;74.37;99282.12;126853;1286;99122;-85
2022/11/21 07:49:07;;;;;;;57.20;26.60;;;;;;;-1.55;74.44;99278.05;126842;1291;97999;-83
2022/11/21 07:52:09;;;;;;;48.50;24.50;;;;;;;-1.45;74.32;99283.32;127121;1292;99156;-84
2022/11/21 07:55:12;;;;;;;50.80;25.30;;;;;;;-1.34;74.26;99287.27;127171;1288;97981;-86
2022/11/21 07:58:16;;;;;;;50.70;25.00;;;;;;;-1.23;74.27;99292.98;126991;1284;99205;-85
2022/11/21 08:01:19;;;;;;;48.80;25.20;;;;;;;-1.14;74.27;99290.54;126909;1295;99131;-83
2022/11/21 08:04:21;;;;;;;48.20;25.60;;;;;;;-1.09;74.29;99288.60;126820;1288;98061;-85
2022/11/21 08:07:24;;;;;;;57.10;27.30;;;;;;;-1.09;74.22;99282.48;126899;1293;99099;-85
2022/11/21 08:10:27;;;;;;;56.40;27.70;;;;;;;-1.10;74.33;99280.79;126852;1296;97988;-85
2022/11/21 08:13:29;;;;;;;56.60;28.20;;;;;;;-1.09;74.27;99278.27;126812;1274;99147;-85
2022/11/21 08:16:32;;;;;;;58.10;29.00;;;;;;;-1.08;74.29;99272.14;126899;1275;98007;-85
2022/11/21 08:19:35;;;;;;;58.00;29.90;;;;;;;-1.07;74.41;99268.23;126868;1281;98015;-84
2022/11/21 08:22:41;;;;;;;121.40;56.80;;;;;;;-1.07;74.42;99261.96;126878;1294;98031;-85
2022/11/21 08:25:44;;;;;;;127.00;55.70;;;;;;;-1.07;74.61;99266.47;126853;1279;98017;-85
2022/11/21 08:28:46;;;;;;;80.10;35.50;;;;;;;-1.03;74.68;99268.79;126839;1296;98419;-85
2022/11/21 08:31:49;;;;;;;104.30;39.70;;;;;;;-0.92;74.63;99261.99;126862;1288;98013;-84
2022/11/21 08:34:52;;;;;;;104.50;39.70;;;;;;;-0.81;74.65;99250.58;127158;1280;98732;-86
2022/11/21 08:37:56;;;;;;;120.70;43.60;;;;;;;-0.70;74.58;99246.16;127204;1281;97999;-84
2022/11/21 08:44:20;;;;;;;92.00;36.00;;;;;;;-0.51;74.44;99239.94;126876;1286;98068;-86
2022/11/21 08:47:23;;;;;;;97.80;37.30;;;;;;;-0.46;74.33;99236.77;126808;1296;99173;-84
2022/11/21 08:50:26;;;;;;;68.30;33.20;;;;;;;-0.42;74.17;99239.95;126793;1289;98140;-85
2022/11/21 08:53:29;;;;;;;57.50;29.60;;;;;;;-0.40;74.31;99246.13;126919;1296;98119;-83
2022/11/21 08:56:32;;;;;;;83.30;33.00;;;;;;;-0.42;74.16;99249.40;127103;1280;98080;-83
2022/11/21 08:59:34;;;;;;;65.90;29.00;;;;;;;-0.42;74.15;99249.96;127224;1285;99123;-85
2022/11/21 09:02:48;;;;;;;83.10;32.60;;;;;;;-0.45;74.16;99247.17;126956;1295;98021;-83
2022/11/21 09:05:51;;;;;;;59.90;28.40;;;;;;;-0.47;74.43;99241.89;126736;1285;97976;-85
2022/11/21 09:08:54;;;;;;;63.40;30.50;;;;;;;-0.46;74.33;99240.77;126696;1290;99049;-82
2022/11/21 09:11:57;;;;;;;68.20;31.00;;;;;;;-0.46;74.37;99243.09;126802;1281;97974;-85
2022/11/21 09:18:20;;;;;;;62.10;29.30;;;;;;;-0.43;74.57;99236.73;126981;1295;101361;-83
2022/11/21 09:21:23;;;;;;;72.40;29.00;;;;;;;-0.44;74.42;99231.92;126976;1281;99135;-85
2022/11/21 09:24:26;;;;;;;104.90;34.80;;;;;;;-0.46;74.50;99226.42;126793;1287;98407;-84
2022/11/21 09:27:30;;;;;;;66.30;27.30;;;;;;;-0.48;74.63;99218.57;126785;1280;98023;-84
2022/11/21 09:30:33;;;;;;;76.20;29.70;;;;;;;-0.45;74.42;99210.30;126938;1278;98021;-84
2022/11/21 09:33:36;;;;;;;94.00;34.80;;;;;;;-0.39;74.58;99200.11;127095;1295;97943;-84
2022/11/21 09:36:38;;;;;;;91.40;34.60;;;;;;;-0.30;74.70;99194.60;126782;1288;99067;-83
2022/11/21 09:39:41;;;;;;;93.60;34.60;;;;;;;-0.20;74.54;99192.15;127047;1285;97972;-83
2022/11/21 09:42:59;;;;;;;84.90;33.40;;;;;;;-0.12;74.52;99189.45;127129;1278;99163;-84
2022/11/21 09:46:09;;;;;;;96.50;35.20;;;;;;;-0.07;74.52;99186.96;127051;1278;98009;-83
2022/11/21 09:49:13;;;;;;;86.70;33.40;;;;;;;0.01;74.49;99188.37;127193;1285;97969;-84
2022/11/21 09:52:21;;;;;;;68.50;30.10;;;;;;;0.08;74.38;99193.41;127051;1284;97969;-84
2022/11/21 09:55:31;;;;;;;72.50;31.10;;;;;;;0.14;74.43;99188.27;126989;1286;99049;-84
2022/11/21 09:58:39;;;;;;;85.20;35.10;;;;;;;0.19;74.57;99182.29;126963;1284;98047;-84
2022/11/21 10:01:41;;;;;;;61.20;29.40;;;;;;;0.25;74.52;99172.25;127151;1285;97995;-82
2022/11/21 10:04:47;;;;;;;83.20;34.00;;;;;;;0.32;74.76;99173.30;127174;1280;98867;-84
2022/11/21 10:07:57;;;;;;;90.10;35.50;;;;;;;0.38;74.60;99177.04;127045;1280;99241;-84
2022/11/21 10:11:11;;;;;;;82.70;33.60;;;;;;;0.45;74.56;99173.35;127053;1285;99134;-83
2022/11/21 10:14:27;;;;;;;107.30;38.00;;;;;;;0.51;74.71;99169.39;127294;1281;98066;-83
2022/11/21 10:17:39;;;;;;;99.50;37.10;;;;;;;0.58;74.61;99167.69;127143;1281;97979;-82
2022/11/21 10:20:53;;;;;;;63.50;28.00;;;;;;;0.67;74.87;99162.94;127164;1285;98605;-83
2022/11/21 10:24:11;;;;;;;65.70;29.50;;;;;;;0.80;74.70;99158.81;127114;1285;98066;-83
2022/11/21 10:27:18;;;;;;;69.20;31.60;;;;;;;0.95;74.80;99157.13;127200;1285;98015;-84
2022/11/21 10:30:21;;;;;;;73.90;32.60;;;;;;;1.07;74.66;99152.65;127338;1285;99160;-84
2022/11/21 10:33:29;;;;;;;78.30;34.60;;;;;;;1.16;74.75;99146.91;127186;1286;99023;-83
2022/11/21 10:36:38;;;;;;;61.00;29.50;;;;;;;1.25;74.91;99149.05;127291;1278;99131;-83
2022/11/21 10:39:45;;;;;;;52.80;27.60;;;;;;;1.30;74.68;99144.23;126975;1278;97989;-84
2022/11/21 10:42:53;;;;;;;50.10;26.20;;;;;;;1.35;74.62;99139.85;126946;1288;98080;-83
2022/11/21 10:45:55;;;;;;;47.80;25.20;;;;;;;1.40;74.61;99134.53;126951;1288;97986;-85
2022/11/21 10:49:00;;;;;;;46.60;26.50;;;;;;;1.45;74.59;99134.62;127006;1288;99218;-83
2022/11/21 10:52:10;;;;;;;44.20;25.50;;;;;;;1.49;74.61;99132.58;126875;1288;97969;-75
2022/11/21 10:55:13;;;;;;;40.30;22.40;;;;;;;1.51;74.54;99136.92;126970;1286;98009;-84
2022/11/21 10:58:18;;;;;;;44.30;25.80;;;;;;;1.59;74.79;99126.89;127303;1284;98104;-83
2022/11/21 11:01:24;;;;;;;44.40;23.00;;;;;;;1.70;74.92;99121.60;127642;1285;97978;-84
2022/11/21 11:04:28;;;;;;;44.10;22.30;;;;;;;1.84;74.97;99116.61;127287;1278;98410;-83
2022/11/21 11:07:31;;;;;;;63.90;29.60;;;;;;;1.99;74.71;99115.17;127158;1285;98411;-84
2022/11/21 11:10:36;;;;;;;48.20;24.40;;;;;;;2.19;74.57;99113.20;127184;1281;97991;-83
2022/11/21 11:13:56;;;;;;;46.40;24.30;;;;;;;2.35;74.72;99111.00;127357;1285;99084;-83
2022/11/21 11:16:58;;;;;;;56.40;28.80;;;;;;;2.50;74.64;99112.16;127231;1277;98094;-81
2022/11/21 11:20:04;;;;;;;45.70;24.90;;;;;;;2.64;74.63;99107.34;127137;1285;98343;-83
2022/11/21 11:23:16;;;;;;;52.80;27.70;;;;;;;2.72;74.59;99107.11;127393;1285;98080;-82
2022/11/21 11:26:26;;;;;;;46.30;25.10;;;;;;;2.75;74.39;99104.77;127411;1278;98813;-83
2022/11/21 11:29:30;;;;;;;54.20;28.70;;;;;;;2.76;74.39;99102.41;127129;1286;98311;-82
2022/11/21 11:32:40;;;;;;;84.10;39.60;;;;;;;2.79;74.48;99107.30;127401;1285;98072;-83
2022/11/21 11:35:43;;;;;;;60.10;30.50;;;;;;;2.84;74.61;99108.92;127264;1284;98009;-83
2022/11/21 11:38:52;;;;;;;68.70;33.80;;;;;;;2.87;74.43;99108.35;126928;1286;99093;-83
2022/11/21 11:50:10;;;;;;;45.00;24.20;;;;;;;2.90;74.47;99099.30;127036;1286;98021;-83
2022/11/21 11:53:06;;;;;;;104.30;49.90;;;;;;;2.90;74.60;99097.20;127222;1271;97979;-82
2022/11/21 11:56:16;;;;;;;52.00;26.90;;;;;;;2.91;74.40;99090.64;126878;1288;99016;-82
2022/11/21 11:59:23;;;;;;;53.30;29.10;;;;;;;2.89;74.32;99091.83;127012;1278;98516;-83
2022/11/21 12:02:38;;;;;;;50.30;26.20;;;;;;;2.93;74.33;99084.65;127090;1285;98636;-84
2022/11/21 12:05:58;;;;;;;46.40;24.80;;;;;;;3.00;74.19;99089.12;126850;1295;99026;-81
2022/11/21 12:09:06;;;;;;;50.40;27.50;;;;;;;3.09;74.04;99087.51;126816;1288;98384;-83
2022/11/21 12:12:15;;;;;;;49.60;26.40;;;;;;;3.14;74.22;99090.32;126874;1285;97994;-83
2022/11/21 12:18:53;;;;;;;47.80;25.80;;;;;;;3.19;74.08;99083.39;127028;1285;98008;-83
2022/11/21 12:21:56;;;;;;;51.50;28.30;;;;;;;3.21;73.97;99085.59;127180;1294;98984;-83
2022/11/21 12:24:58;;;;;;;51.40;29.00;;;;;;;3.19;73.97;99086.31;127030;1272;99166;-83
2022/11/21 12:28:10;;;;;;;50.90;28.10;;;;;;;3.16;73.96;99083.69;127013;1274;98182;-84
2022/11/21 12:31:19;;;;;;;50.50;28.50;;;;;;;3.12;74.09;99090.20;126993;1295;98176;-83
2022/11/21 12:34:35;;;;;;;48.30;27.00;;;;;;;3.06;74.03;99092.98;127025;1280;98071;-83
2022/11/21 12:37:52;;;;;;;51.20;27.50;;;;;;;3.03;74.13;99090.81;126949;1278;99081;-82
2022/11/21 12:44:45;;;;;;;51.20;27.00;;;;;;;2.93;74.22;99081.84;126993;1287;98416;-82
2022/11/21 12:55:17;;;;;;;54.90;28.50;;;;;;;3.10;74.31;99074.31;126857;1275;98713;-81
2022/11/21 12:58:29;;;;;;;54.30;28.50;;;;;;;3.21;74.12;99072.34;127042;1281;98204;-80
2022/11/21 13:01:38;;;;;;;55.20;28.60;;;;;;;3.30;74.36;99070.70;126981;1288;98010;-82
2022/11/21 13:04:45;;;;;;;51.70;29.70;;;;;;;3.34;74.20;99074.58;126892;1285;98050;-81
2022/11/21 13:07:49;;;;;;;54.70;30.20;;;;;;;3.33;74.06;99075.71;126983;1278;98746;-81
2022/11/21 13:11:57;;;;;;;52.80;30.40;;;;;;;3.30;74.14;99075.82;127019;1288;97989;-82
2022/11/21 13:14:35;;;;;;;57.60;33.10;;;;;;;3.24;74.17;99072.64;127098;1277;99134;-80
2022/11/21 13:17:44;;;;;;;57.90;30.60;;;;;;;3.20;74.20;99075.08;127345;1277;97968;-81
2022/11/21 13:20:49;;;;;;;57.40;31.30;;;;;;;3.19;74.37;99068.91;126848;1279;97975;-80
2022/11/21 13:23:52;;;;;;;54.00;29.40;;;;;;;3.16;74.29;99069.30;126848;1288;123709;-82
2022/11/21 13:26:55;;;;;;;56.60;29.80;;;;;;;3.14;74.43;99072.27;126829;1279;99118;-82
2022/11/21 13:30:19;;;;;;;54.60;29.50;;;;;;;3.11;74.40;99074.15;126876;1271;98005;-81
2022/11/21 13:33:50;;;;;;;53.60;29.00;;;;;;;3.07;74.55;99069.94;127001;1294;98506;-83
2022/11/21 13:36:52;;;;;;;53.30;28.40;;;;;;;3.04;74.63;99065.77;126690;1285;98084;-82
2022/11/21 13:40:35;;;;;;;47.80;26.20;;;;;;;3.07;74.71;99062.70;127066;1278;98758;-83
2022/11/21 13:43:38;;;;;;;52.80;28.60;;;;;;;3.13;74.67;99064.96;127026;1278;98354;-82
2022/11/21 13:47:01;;;;;;;55.60;30.70;;;;;;;3.16;74.59;99063.14;127078;1278;99196;-83
2022/11/21 13:50:16;;;;;;;54.90;30.10;;;;;;;3.18;74.53;99061.56;127028;1288;98173;-81
2022/11/21 13:53:51;;;;;;;55.30;30.60;;;;;;;3.18;74.45;99060.32;126828;1281;99060;-83
2022/11/21 13:57:09;;;;;;;51.90;29.80;;;;;;;3.15;74.52;99063.24;127022;1294;97986;-82
2022/11/21 14:00:31;;;;;;;56.90;30.00;;;;;;;3.10;74.50;99057.33;127177;1294;98068;-83
2022/11/21 14:03:53;;;;;;;55.70;30.90;;;;;;;3.05;74.38;99056.66;127214;1288;98016;-84
2022/11/21 14:07:27;;;;;;;54.40;29.80;;;;;;;3.00;74.73;99059.27;127213;1294;98628;-81
2022/11/21 14:10:32;;;;;;;59.40;32.90;;;;;;;2.95;74.61;99063.77;127007;1298;99115;-82
2022/11/21 14:13:45;;;;;;;56.30;30.20;;;;;;;2.89;74.60;99063.34;127014;1285;97993;-81
2022/11/21 14:16:54;;;;;;;50.50;28.80;;;;;;;2.85;74.68;99059.20;127404;1277;98327;-81
2022/11/21 14:19:59;;;;;;;56.00;29.30;;;;;;;2.79;74.77;99054.56;127097;1279;98114;-82
2022/11/21 14:23:04;;;;;;;55.70;28.40;;;;;;;2.76;74.98;99057.80;127079;1272;97979;-83
2022/11/21 14:26:14;;;;;;;47.60;25.20;;;;;;;2.76;74.90;99056.77;127138;1293;99830;-83
2022/11/21 14:29:17;;;;;;;45.10;25.80;;;;;;;2.81;75.04;99059.74;127088;1294;99157;-83
2022/11/21 14:32:26;;;;;;;52.30;28.80;;;;;;;2.84;74.96;99061.88;126962;1294;98011;-81
2022/11/21 14:35:29;;;;;;;51.30;26.70;;;;;;;2.87;74.88;99065.88;127092;1278;98023;-81
2022/11/21 14:38:35;;;;;;;54.80;30.30;;;;;;;2.88;74.98;99066.25;127020;1274;99083;-83
2022/11/21 14:41:39;;;;;;;56.30;31.00;;;;;;;2.89;75.05;99067.98;126943;1294;98750;-83
2022/11/21 14:44:42;;;;;;;62.40;33.40;;;;;;;2.89;75.07;99071.30;126947;1294;98011;-84